createdAt,value
2019-06-07T00:00:48.146Z,26.80
2019-06-07T00:03:29.691Z,26.90
2019-06-07T00:06:02.617Z,26.80
2019-06-07T00:08:39.492Z,27.00
2019-06-07T00:11:20.301Z,26.60
2019-06-07T00:13:54.350Z,27.00
2019-06-07T00:16:31.110Z,27.10
2019-06-07T00:19:09.715Z,27.20
2019-06-07T00:24:24.370Z,27.20
2019-06-07T00:27:01.175Z,27.30
2019-06-07T00:29:38.139Z,27.50
2019-06-07T00:32:19.120Z,27.60
2019-06-07T00:34:53.674Z,27.40
2019-06-07T00:37:29.977Z,27.50
2019-06-07T00:40:16.163Z,27.50
2019-06-07T00:42:44.573Z,27.50
2019-06-07T00:45:24.467Z,27.80
2019-06-07T00:48:00.184Z,27.80
2019-06-07T00:50:37.610Z,28.00
2019-06-07T00:53:26.936Z,27.90
2019-06-07T00:55:54.971Z,27.90
2019-06-07T00:58:31.428Z,28.20
2019-06-07T01:01:08.350Z,28.20
2019-06-07T01:03:44.895Z,28.10
2019-06-07T01:06:23.094Z,27.80
2019-06-07T01:08:59.351Z,28.20
2019-06-07T01:11:35.828Z,28.40
2019-06-07T01:14:14.407Z,28.60
2019-06-07T01:16:57.084Z,28.40
2019-06-07T01:19:28.424Z,28.50
2019-06-07T01:22:05.914Z,28.80
2019-06-07T01:24:42.786Z,28.90
2019-06-07T01:27:22.537Z,28.80
2019-06-07T01:29:57.120Z,28.60
2019-06-07T01:32:38.819Z,28.80
2019-06-07T01:35:16.569Z,28.70
2019-06-07T01:37:52.920Z,28.60
2019-06-07T01:40:32.576Z,29.00
2019-06-07T01:43:07.456Z,29.00
2019-06-07T01:45:44.240Z,29.30
2019-06-07T01:48:23.121Z,29.40
2019-06-07T01:50:57.953Z,29.80
2019-06-07T01:53:34.273Z,29.90
2019-06-07T01:56:10.977Z,30.00
2019-06-07T01:58:47.269Z,30.20
2019-06-07T02:01:25.900Z,30.10
2019-06-07T02:04:02.480Z,30.10
2019-06-07T02:06:39.900Z,30.30
2019-06-07T02:09:16.303Z,30.20
2019-06-07T02:11:52.697Z,30.10
2019-06-07T02:14:30.631Z,30.10
2019-06-07T02:17:06.944Z,30.20
2019-06-07T02:19:43.404Z,30.10
2019-06-07T02:22:21.819Z,30.00
2019-06-07T02:25:34.402Z,29.70
2019-06-07T02:27:36.675Z,30.20
2019-06-07T02:32:51.718Z,30.50
2019-06-07T02:35:40.533Z,30.90
2019-06-07T02:38:12.836Z,30.80
2019-06-07T02:40:52.652Z,30.90
2019-06-07T02:43:36.219Z,31.10
2019-06-07T02:46:35.282Z,31.10
2019-06-07T02:49:05.190Z,31.20
2019-06-07T02:51:42.229Z,31.10
2019-06-07T02:54:19.692Z,31.30
2019-06-07T02:56:58.994Z,31.30
2019-06-07T03:00:04.380Z,31.60
2019-06-07T03:02:13.550Z,31.00
2019-06-07T03:04:50.646Z,31.20
2019-06-07T03:07:30.033Z,31.60
2019-06-07T03:10:06.424Z,31.40
2019-06-07T03:12:45.982Z,31.50
2019-06-07T03:15:39.258Z,31.90
2019-06-07T03:18:29.008Z,32.60
2019-06-07T03:21:05.826Z,32.20
2019-06-07T03:23:44.490Z,32.10
2019-06-07T03:26:21.553Z,31.50
2019-06-07T03:28:58.571Z,31.10
2019-06-07T03:31:45.399Z,31.20
2019-06-07T03:34:13.399Z,31.70
2019-06-07T03:36:49.869Z,31.80
2019-06-07T03:39:28.405Z,32.00
2019-06-07T03:42:06.672Z,31.80
2019-06-07T03:44:42.085Z,31.70
2019-06-07T03:47:18.770Z,32.00
2019-06-07T03:49:55.595Z,31.90
2019-06-07T03:52:35.551Z,32.10
2019-06-07T03:55:21.549Z,32.30
2019-06-07T03:58:30.880Z,32.50
2019-06-07T04:00:39.502Z,31.90
2019-06-07T04:03:32.758Z,31.80
2019-06-07T04:05:53.436Z,32.00
2019-06-07T04:08:30.867Z,32.00
2019-06-07T04:11:10.866Z,31.80
2019-06-07T04:13:47.378Z,32.00
2019-06-07T04:16:24.149Z,32.30
2019-06-07T04:19:01.912Z,32.20
2019-06-07T04:21:42.515Z,32.20
2019-06-07T04:24:17.805Z,32.10
2019-06-07T04:26:54.535Z,32.20
2019-06-07T04:29:33.799Z,32.20
2019-06-07T04:32:17.057Z,32.00
2019-06-07T04:34:53.281Z,32.30
2019-06-07T04:37:31.002Z,32.20
2019-06-07T04:40:08.286Z,32.50
2019-06-07T04:42:46.216Z,32.30
2019-06-07T04:45:33.804Z,32.60
2019-06-07T04:48:02.609Z,32.90
2019-06-07T04:50:43.501Z,33.30
2019-06-07T04:53:17.737Z,33.20
2019-06-07T04:55:54.516Z,32.80
2019-06-07T04:58:31.474Z,32.20
2019-06-07T05:01:26.402Z,32.60
2019-06-07T05:03:46.677Z,33.00
2019-06-07T05:06:23.642Z,32.70
2019-06-07T05:09:00.312Z,32.80
2019-06-07T05:11:43.340Z,33.40
2019-06-07T05:14:16.449Z,33.00
2019-06-07T05:16:52.858Z,33.00
2019-06-07T05:19:30.585Z,33.40
2019-06-07T05:22:06.609Z,33.70
2019-06-07T05:24:43.877Z,33.50
2019-06-07T05:27:20.737Z,33.20
2019-06-07T05:30:09.607Z,32.90
2019-06-07T05:32:34.987Z,33.00
2019-06-07T05:35:12.431Z,32.70
2019-06-07T05:37:48.671Z,32.00
2019-06-07T05:40:36.547Z,32.50
2019-06-07T05:43:14.270Z,33.40
2019-06-07T05:45:50.833Z,33.70
2019-06-07T05:48:27.563Z,33.80
2019-06-07T05:51:03.970Z,33.40
2019-06-07T05:53:42.128Z,32.90
2019-06-07T05:56:18.686Z,32.90
2019-06-07T05:58:55.565Z,32.90
2019-06-07T06:01:58.961Z,33.30
2019-06-07T06:04:09.898Z,33.00
2019-06-07T06:06:47.458Z,33.40
2019-06-07T06:09:24.010Z,33.30
2019-06-07T06:12:02.662Z,33.40
2019-06-07T06:14:42.246Z,33.40
2019-06-07T06:17:16.883Z,33.10
2019-06-07T06:19:53.602Z,33.50
2019-06-07T06:22:30.207Z,33.70
2019-06-07T06:30:24.561Z,32.90
2019-06-07T06:33:00.717Z,33.10
2019-06-07T06:35:37.852Z,33.30
2019-06-07T06:38:13.795Z,33.50
2019-06-07T06:41:05.291Z,33.20
2019-06-07T06:43:28.184Z,33.10
2019-06-07T06:46:04.598Z,33.30
2019-06-07T06:48:45.493Z,33.30
2019-06-07T06:51:18.594Z,33.30
2019-06-07T06:53:55.445Z,33.10
2019-06-07T06:56:32.089Z,33.50
2019-06-07T07:01:49.452Z,34.10
2019-06-07T07:04:24.434Z,34.40
2019-06-07T07:07:01.206Z,33.30
2019-06-07T07:09:38.232Z,32.70
2019-06-07T07:12:15.089Z,32.70
2019-06-07T07:14:55.143Z,32.80
2019-06-07T07:17:47.575Z,33.20
2019-06-07T07:20:08.138Z,33.30
2019-06-07T07:22:47.891Z,33.00
2019-06-07T07:25:23.233Z,32.50
2019-06-07T07:28:00.203Z,31.00
2019-06-07T07:30:57.104Z,29.40
2019-06-07T07:34:21.067Z,29.50
2019-06-07T07:36:28.655Z,29.10
2019-06-07T07:38:55.763Z,28.40
2019-06-07T07:41:27.775Z,28.70
2019-06-07T07:44:07.049Z,28.50
2019-06-07T07:46:43.342Z,27.90
2019-06-07T07:49:20.528Z,28.00
2019-06-07T07:51:58.941Z,28.00
2019-06-07T07:54:34.895Z,28.40
2019-06-07T07:57:12.734Z,28.60
2019-06-07T08:00:06.091Z,28.80
2019-06-07T08:02:27.090Z,28.90
2019-06-07T08:05:21.127Z,28.60
2019-06-07T08:07:41.836Z,28.90
2019-06-07T08:10:18.507Z,29.10
2019-06-07T08:13:14.184Z,28.90
2019-06-07T08:15:33.300Z,28.80
2019-06-07T08:18:09.698Z,28.80
2019-06-07T08:21:04.965Z,28.60
2019-06-07T08:23:23.983Z,28.80
2019-06-07T08:26:01.247Z,28.80
2019-06-07T08:28:39.207Z,28.90
2019-06-07T08:31:16.033Z,29.20
2019-06-07T08:33:55.654Z,29.20
2019-06-07T08:36:41.329Z,29.40
2019-06-07T08:39:10.067Z,29.30
2019-06-07T08:41:59.809Z,29.40
2019-06-07T08:44:25.678Z,29.40
2019-06-07T08:47:18.907Z,29.40
2019-06-07T08:49:39.646Z,29.60
2019-06-07T08:52:16.534Z,29.90
2019-06-07T08:54:54.921Z,30.00
2019-06-07T08:57:31.101Z,29.80
2019-06-07T09:00:42.180Z,30.00
2019-06-07T09:02:46.005Z,30.50
2019-06-07T09:05:22.672Z,30.90
2019-06-07T09:08:23.461Z,31.00
2019-06-07T09:10:39.400Z,31.20
2019-06-07T09:13:16.295Z,31.10
2019-06-07T09:15:55.292Z,31.10
2019-06-07T09:18:42.232Z,31.20
2019-06-07T09:21:09.941Z,31.80
2019-06-07T09:23:46.941Z,31.50
2019-06-07T09:26:23.963Z,31.70
2019-06-07T09:29:03.378Z,31.80
2019-06-07T09:31:52.031Z,32.00
2019-06-07T09:34:16.631Z,32.10
2019-06-07T09:36:54.072Z,31.80
2019-06-07T09:39:30.457Z,31.90
2019-06-07T09:42:09.944Z,31.70
2019-06-07T09:44:44.677Z,31.80
2019-06-07T09:47:31.951Z,31.80
2019-06-07T09:50:04.044Z,32.20
2019-06-07T09:52:57.079Z,32.10
2019-06-07T09:55:23.738Z,32.00
2019-06-07T09:57:52.897Z,32.40
2019-06-07T10:00:41.274Z,32.30
2019-06-07T10:03:26.262Z,31.90
2019-06-07T10:06:08.783Z,31.80
2019-06-07T10:09:57.114Z,31.70
2019-06-07T10:11:20.708Z,31.80
2019-06-07T10:13:58.304Z,32.20
2019-06-07T10:16:46.207Z,31.90
2019-06-07T10:19:17.071Z,31.60
2019-06-07T10:21:53.538Z,31.50
2019-06-07T10:24:30.164Z,31.60
2019-06-07T10:27:07.878Z,31.70
2019-06-07T10:29:44.631Z,31.80
2019-06-07T10:32:20.946Z,31.60
2019-06-07T10:34:58.066Z,31.80
2019-06-07T10:37:34.346Z,32.00
2019-06-07T10:40:11.459Z,31.60
2019-06-07T10:42:48.152Z,31.20
2019-06-07T10:45:24.795Z,31.30
2019-06-07T10:48:03.452Z,31.50
2019-06-07T10:50:41.340Z,31.40
2019-06-07T10:53:17.803Z,31.20
2019-06-07T10:55:54.242Z,31.00
2019-06-07T10:58:30.928Z,30.80
2019-06-07T11:01:09.359Z,30.80
2019-06-07T11:03:46.126Z,30.80
2019-06-07T11:06:22.912Z,30.70
2019-06-07T11:08:59.621Z,30.80
2019-06-07T11:11:36.147Z,30.70
2019-06-07T11:14:13.071Z,30.60
2019-06-07T11:16:49.586Z,30.60
2019-06-07T11:19:26.169Z,30.70
2019-06-07T11:22:02.648Z,30.50
2019-06-07T11:24:39.460Z,30.40
2019-06-07T11:27:16.498Z,30.40
2019-06-07T11:29:53.387Z,30.20
2019-06-07T11:32:30.257Z,30.30
2019-06-07T11:35:06.430Z,30.20
2019-06-07T11:37:42.969Z,30.10
2019-06-07T11:40:35.035Z,30.00
2019-06-07T11:42:58.130Z,29.80
2019-06-07T11:45:34.832Z,29.70
2019-06-07T11:48:11.416Z,29.70
2019-06-07T11:50:48.386Z,29.70
2019-06-07T11:53:27.045Z,29.70
2019-06-07T11:56:03.599Z,29.70
2019-06-07T11:58:40.470Z,29.70
2019-06-07T12:01:18.346Z,29.70
2019-06-07T12:03:57.604Z,29.70
2019-06-07T12:06:32.524Z,29.50
2019-06-07T12:09:12.332Z,29.40
2019-06-07T12:11:48.931Z,29.40
2019-06-07T12:14:25.320Z,29.40
2019-06-07T12:17:03.365Z,29.30
2019-06-07T12:19:39.705Z,29.20
2019-06-07T12:22:16.250Z,29.20
2019-06-07T12:24:53.757Z,29.20
2019-06-07T12:27:30.584Z,29.10
2019-06-07T12:30:11.140Z,28.80
2019-06-07T12:32:45.324Z,28.60
2019-06-07T12:35:22.266Z,28.70
2019-06-07T12:37:58.505Z,28.90
2019-06-07T12:40:34.612Z,29.10
2019-06-07T12:43:12.302Z,28.90
2019-06-07T12:45:49.529Z,29.00
2019-06-07T12:48:26.253Z,29.00
2019-06-07T12:51:03.059Z,29.00
2019-06-07T12:53:39.556Z,29.00
2019-06-07T12:56:15.639Z,28.80
2019-06-07T12:58:52.270Z,28.60
2019-06-07T13:01:29.315Z,28.60
2019-06-07T13:04:05.874Z,28.70
2019-06-07T13:06:42.228Z,28.60
2019-06-07T13:09:19.898Z,28.70
2019-06-07T13:11:56.655Z,28.60
2019-06-07T13:14:33.295Z,28.50
2019-06-07T13:17:09.823Z,28.50
2019-06-07T13:19:46.328Z,28.70
2019-06-07T13:22:24.282Z,28.50
2019-06-07T13:25:01.060Z,28.30
2019-06-07T13:27:37.541Z,28.40
2019-06-07T13:30:14.664Z,28.40
2019-06-07T13:32:51.240Z,28.60
2019-06-07T13:35:29.582Z,28.50
2019-06-07T13:38:06.195Z,28.40
2019-06-07T13:40:42.719Z,28.50
2019-06-07T13:43:19.643Z,28.30
2019-06-07T13:45:56.154Z,28.30
2019-06-07T13:48:32.807Z,28.30
2019-06-07T13:51:10.938Z,28.30
2019-06-07T13:53:47.735Z,28.30
2019-06-07T13:56:24.466Z,28.40
2019-06-07T13:59:00.720Z,28.50
2019-06-07T14:01:37.153Z,28.50
2019-06-07T14:04:18.814Z,28.20
2019-06-07T14:06:55.759Z,28.10
2019-06-07T14:09:32.550Z,28.30
2019-06-07T14:12:09.162Z,28.40
2019-06-07T14:14:45.233Z,28.50
2019-06-07T14:17:23.200Z,28.50
2019-06-07T14:19:59.802Z,28.40
2019-06-07T14:22:36.387Z,28.40
2019-06-07T14:25:14.584Z,28.30
2019-06-07T14:27:51.082Z,28.00
2019-06-07T14:30:30.517Z,28.10
2019-06-07T14:33:06.346Z,28.30
2019-06-07T14:35:42.566Z,28.40
2019-06-07T14:38:19.155Z,28.30
2019-06-07T14:40:56.171Z,28.30
2019-06-07T14:43:33.961Z,28.30
2019-06-07T14:46:10.597Z,28.30
2019-06-07T14:48:47.353Z,28.20
2019-06-07T14:51:24.713Z,28.10
2019-06-07T14:54:01.724Z,28.20
2019-06-07T14:56:38.569Z,28.00
2019-06-07T14:59:15.144Z,27.90
2019-06-07T15:01:51.606Z,27.90
2019-06-07T15:04:28.555Z,27.80
2019-06-07T15:07:05.334Z,27.90
2019-06-07T15:09:41.882Z,27.90
2019-06-07T15:12:24.979Z,28.00
2019-06-07T15:14:57.890Z,28.20
2019-06-07T15:17:35.403Z,28.20
2019-06-07T15:20:12.369Z,28.00
2019-06-07T15:22:48.548Z,27.70
2019-06-07T15:25:26.954Z,27.70
2019-06-07T15:28:03.691Z,28.00
2019-06-07T15:30:40.589Z,28.10
2019-06-07T15:33:17.378Z,27.90
2019-06-07T15:35:53.791Z,27.90
2019-06-07T15:38:33.100Z,27.90
2019-06-07T15:41:09.633Z,28.00
2019-06-07T15:43:51.371Z,28.00
2019-06-07T15:46:27.847Z,27.80
2019-06-07T15:49:05.568Z,27.70
2019-06-07T15:51:42.188Z,27.60
2019-06-07T15:54:19.031Z,27.60
2019-06-07T15:56:55.398Z,27.70
2019-06-07T15:59:33.111Z,27.70
2019-06-07T16:02:09.655Z,27.70
2019-06-07T16:04:46.228Z,27.80
2019-06-07T16:07:23.103Z,27.90
2019-06-07T16:09:59.739Z,27.90
2019-06-07T16:12:36.771Z,27.80
2019-06-07T16:15:14.910Z,27.70
2019-06-07T16:17:51.447Z,27.70
2019-06-07T16:20:28.076Z,27.60
2019-06-07T16:23:04.135Z,27.40
2019-06-07T16:25:42.064Z,27.50
2019-06-07T16:28:18.525Z,27.60
2019-06-07T16:30:55.417Z,27.70
2019-06-07T16:33:32.215Z,27.70
2019-06-07T16:36:09.036Z,27.70
2019-06-07T16:38:45.861Z,27.70
2019-06-07T16:41:23.819Z,27.60
2019-06-07T16:44:00.372Z,27.50
2019-06-07T16:46:38.695Z,27.40
2019-06-07T16:49:15.367Z,27.40
2019-06-07T16:51:51.459Z,27.40
2019-06-07T16:54:28.139Z,27.40
2019-06-07T16:57:04.547Z,27.20
2019-06-07T16:59:41.251Z,27.30
2019-06-07T17:02:18.891Z,27.30
2019-06-07T17:04:55.490Z,27.30
2019-06-07T17:07:32.095Z,27.10
2019-06-07T17:10:09.186Z,27.10
2019-06-07T17:12:46.956Z,27.20
2019-06-07T17:15:24.868Z,27.20
2019-06-07T17:18:02.532Z,27.20
2019-06-07T17:20:39.115Z,27.20
2019-06-07T17:23:15.752Z,27.30
2019-06-07T17:25:52.612Z,27.40
2019-06-07T17:28:30.076Z,27.40
2019-06-07T17:31:06.954Z,27.20
2019-06-07T17:33:43.973Z,27.20
2019-06-07T17:36:20.608Z,27.20
2019-06-07T17:38:57.282Z,27.20
2019-06-07T17:41:50.271Z,27.00
2019-06-07T17:44:11.705Z,27.00
2019-06-07T17:46:49.904Z,27.20
2019-06-07T17:49:25.911Z,27.30
2019-06-07T17:52:02.566Z,27.20
2019-06-07T17:54:39.259Z,27.30
2019-06-07T17:57:16.294Z,27.30
2019-06-07T17:59:53.699Z,27.30
2019-06-07T18:02:30.360Z,27.20
2019-06-07T18:05:07.175Z,27.10
2019-06-07T18:07:43.910Z,27.10
2019-06-07T18:10:25.872Z,27.20
2019-06-07T18:13:02.348Z,27.20
2019-06-07T18:15:51.732Z,27.20
2019-06-07T18:18:25.081Z,27.20
2019-06-07T18:21:01.655Z,27.20
2019-06-07T18:23:38.035Z,27.20
2019-06-07T18:26:14.464Z,27.20
2019-06-07T18:28:51.106Z,27.20
2019-06-07T18:31:27.476Z,27.30
2019-06-07T18:34:05.260Z,27.20
2019-06-07T18:36:41.872Z,27.20
2019-06-07T18:39:18.381Z,27.20
2019-06-07T18:41:55.389Z,27.20
2019-06-07T18:44:32.149Z,27.00
2019-06-07T18:47:09.107Z,27.00
2019-06-07T18:49:45.794Z,26.90
2019-06-07T18:52:26.179Z,27.00
2019-06-07T18:55:03.740Z,27.10
2019-06-07T18:57:39.905Z,27.00
2019-06-07T19:00:16.862Z,26.70
2019-06-07T19:02:54.111Z,26.60
2019-06-07T19:05:30.473Z,26.60
2019-06-07T19:08:07.064Z,26.70
2019-06-07T19:10:43.663Z,26.90
2019-06-07T19:13:20.564Z,27.00
2019-06-07T19:15:57.459Z,26.90
2019-06-07T19:18:33.978Z,26.70
2019-06-07T19:21:10.931Z,26.70
2019-06-07T19:23:47.737Z,26.90
2019-06-07T19:26:23.937Z,27.00
2019-06-07T19:29:00.950Z,26.90
2019-06-07T19:31:38.842Z,26.70
2019-06-07T19:34:15.509Z,26.70
2019-06-07T19:36:53.494Z,26.80
2019-06-07T19:39:30.243Z,26.80
2019-06-07T19:42:06.933Z,26.70
2019-06-07T19:44:53.180Z,26.70
2019-06-07T19:47:21.569Z,26.80
2019-06-07T19:49:58.786Z,27.00
2019-06-07T19:52:35.791Z,27.00
2019-06-07T19:55:12.709Z,27.00
2019-06-07T19:57:50.160Z,27.10
2019-06-07T20:00:27.022Z,27.10
2019-06-07T20:03:04.456Z,27.20
2019-06-07T20:05:41.055Z,27.20
2019-06-07T20:08:17.694Z,27.20
2019-06-07T20:10:54.426Z,27.30
2019-06-07T20:13:30.866Z,27.30
2019-06-07T20:16:07.312Z,27.30
2019-06-07T20:18:43.532Z,27.30
2019-06-07T20:21:20.489Z,27.30
2019-06-07T20:23:57.299Z,27.20
2019-06-07T20:26:33.730Z,27.20
2019-06-07T20:29:25.382Z,27.20
2019-06-07T20:31:47.769Z,27.20
2019-06-07T20:34:24.492Z,27.20
2019-06-07T20:37:03.408Z,27.20
2019-06-07T20:39:39.017Z,27.20
2019-06-07T20:42:15.591Z,27.10
2019-06-07T20:44:52.230Z,26.80
2019-06-07T20:47:28.357Z,26.80
2019-06-07T20:50:04.721Z,26.80
2019-06-07T20:52:40.851Z,26.80
2019-06-07T20:55:17.685Z,26.80
2019-06-07T20:57:54.291Z,26.80
2019-06-07T21:00:31.815Z,26.90
2019-06-07T21:03:09.487Z,26.90
2019-06-07T21:05:46.191Z,27.00
2019-06-07T21:08:22.389Z,27.10
2019-06-07T21:10:59.975Z,27.00
2019-06-07T21:13:36.629Z,27.00
2019-06-07T21:16:13.243Z,27.00
2019-06-07T21:18:49.783Z,27.00
2019-06-07T21:21:26.583Z,27.10
2019-06-07T21:24:04.569Z,27.20
2019-06-07T21:26:41.076Z,27.20
2019-06-07T21:29:17.849Z,27.10
2019-06-07T21:31:54.504Z,27.10
2019-06-07T21:34:31.297Z,27.00
2019-06-07T21:37:07.902Z,27.10
2019-06-07T21:39:44.692Z,27.20
2019-06-07T21:42:20.606Z,27.10
2019-06-07T21:44:57.150Z,27.00
2019-06-07T21:47:34.186Z,27.00
2019-06-07T21:50:12.798Z,27.10
2019-06-07T21:52:49.409Z,27.00
2019-06-07T21:55:26.087Z,26.80
2019-06-07T21:58:03.062Z,26.60
2019-06-07T22:01:20.644Z,26.60
2019-06-07T22:03:57.221Z,26.60
2019-06-07T22:06:33.273Z,26.60
2019-06-07T22:09:12.369Z,26.60
2019-06-07T22:11:49.511Z,26.80
2019-06-07T22:14:25.869Z,26.70
2019-06-07T22:17:04.010Z,26.70
2019-06-07T22:19:41.518Z,26.70
2019-06-07T22:22:18.044Z,26.60
2019-06-07T22:24:54.498Z,26.60
2019-06-07T22:27:31.200Z,26.60
2019-06-07T22:30:08.485Z,26.70
2019-06-07T22:32:45.222Z,26.60
2019-06-07T22:35:21.892Z,26.60
2019-06-07T22:37:59.409Z,26.60
2019-06-07T22:40:35.875Z,26.60
2019-06-07T22:43:12.302Z,26.60
2019-06-07T22:45:48.447Z,26.80
2019-06-07T22:48:25.137Z,26.80
2019-06-07T22:51:06.434Z,26.80
2019-06-07T22:53:46.964Z,26.80
2019-06-07T22:56:33.923Z,26.60
2019-06-07T22:59:13.714Z,26.70
2019-06-07T23:01:47.830Z,26.70
2019-06-07T23:04:24.597Z,26.70
2019-06-07T23:07:01.255Z,26.80
2019-06-07T23:09:37.906Z,26.80
2019-06-07T23:12:15.220Z,26.90
2019-06-07T23:14:51.785Z,27.00
2019-06-07T23:17:28.137Z,27.00
2019-06-07T23:20:04.762Z,27.20
2019-06-07T23:22:41.484Z,27.20
2019-06-07T23:25:22.310Z,27.20
2019-06-07T23:27:56.254Z,27.20
2019-06-07T23:30:33.018Z,27.20
2019-06-07T23:33:10.621Z,27.20
2019-06-07T23:35:47.455Z,27.10
2019-06-07T23:38:23.838Z,27.00
2019-06-07T23:41:00.080Z,27.10
2019-06-07T23:43:36.525Z,27.20
2019-06-07T23:46:13.411Z,27.20
2019-06-07T23:48:49.932Z,27.40
2019-06-07T23:51:26.419Z,27.40
2019-06-07T23:54:03.580Z,27.30
2019-06-07T23:56:40.223Z,27.30
2019-06-07T23:59:16.677Z,27.30
